sensor_id;sensor_type;location;lat;lon;timestamp;P1;durP1;ratioP1;P2;durP2;ratioP2
43248;SDS011;29216;51.248;6.808;2022-08-23T00:01:09;6.40;;;4.40;;
43248;SDS011;29216;51.248;6.808;2022-08-23T00:03:35;8.52;;;4.30;;
43248;SDS011;29216;51.248;6.808;2022-08-23T00:06:02;5.97;;;3.58;;
43248;SDS011;29216;51.248;6.808;2022-08-23T00:08:28;7.57;;;4.00;;
43248;SDS011;29216;51.248;6.808;2022-08-23T00:10:54;7.90;;;4.25;;
43248;SDS011;29216;51.248;6.808;2022-08-23T00:13:20;5.95;;;4.05;;
43248;SDS011;29216;51.248;6.808;2022-08-23T00:15:46;4.88;;;4.00;;
43248;SDS011;29216;51.248;6.808;2022-08-23T00:18:12;9.50;;;4.28;;
43248;SDS011;29216;51.248;6.808;2022-08-23T00:20:40;6.03;;;4.15;;
43248;SDS011;29216;51.248;6.808;2022-08-23T00:23:06;5.97;;;4.00;;
43248;SDS011;29216;51.248;6.808;2022-08-23T00:25:32;7.55;;;4.63;;
43248;SDS011;29216;51.248;6.808;2022-08-23T00:27:58;7.13;;;4.60;;
43248;SDS011;29216;51.248;6.808;2022-08-23T00:30:24;6.97;;;3.92;;
43248;SDS011;29216;51.248;6.808;2022-08-23T00:32:50;4.85;;;3.88;;
43248;SDS011;29216;51.248;6.808;2022-08-23T00:35:17;6.35;;;4.13;;
43248;SDS011;29216;51.248;6.808;2022-08-23T00:37:44;6.53;;;3.70;;
43248;SDS011;29216;51.248;6.808;2022-08-23T00:40:11;6.57;;;4.13;;
43248;SDS011;29216;51.248;6.808;2022-08-23T00:45:27;7.32;;;3.80;;
43248;SDS011;29216;51.248;6.808;2022-08-23T00:48:15;7.45;;;4.03;;
43248;SDS011;29216;51.248;6.808;2022-08-23T00:50:49;4.47;;;3.80;;
43248;SDS011;29216;51.248;6.808;2022-08-23T00:53:23;7.20;;;3.80;;
43248;SDS011;29216;51.248;6.808;2022-08-23T00:55:51;7.18;;;4.13;;
43248;SDS011;29216;51.248;6.808;2022-08-23T00:58:20;6.93;;;4.20;;
43248;SDS011;29216;51.248;6.808;2022-08-23T01:00:47;5.80;;;3.78;;
43248;SDS011;29216;51.248;6.808;2022-08-23T01:03:14;5.43;;;3.90;;
43248;SDS011;29216;51.248;6.808;2022-08-23T01:08:13;7.70;;;4.47;;
43248;SDS011;29216;51.248;6.808;2022-08-23T01:10:45;6.78;;;4.00;;
43248;SDS011;29216;51.248;6.808;2022-08-23T01:13:15;5.63;;;3.72;;
43248;SDS011;29216;51.248;6.808;2022-08-23T01:18:08;6.90;;;4.35;;
43248;SDS011;29216;51.248;6.808;2022-08-23T01:20:48;6.45;;;3.80;;
43248;SDS011;29216;51.248;6.808;2022-08-23T01:26:00;7.05;;;4.47;;
43248;SDS011;29216;51.248;6.808;2022-08-23T01:28:27;7.55;;;4.20;;
43248;SDS011;29216;51.248;6.808;2022-08-23T01:30:53;6.50;;;4.20;;
43248;SDS011;29216;51.248;6.808;2022-08-23T01:33:19;5.38;;;4.15;;
43248;SDS011;29216;51.248;6.808;2022-08-23T01:35:46;5.30;;;4.18;;
43248;SDS011;29216;51.248;6.808;2022-08-23T01:38:14;6.47;;;4.22;;
43248;SDS011;29216;51.248;6.808;2022-08-23T01:40:41;6.97;;;4.47;;
43248;SDS011;29216;51.248;6.808;2022-08-23T01:43:07;8.43;;;4.15;;
43248;SDS011;29216;51.248;6.808;2022-08-23T01:45:34;6.95;;;4.20;;
43248;SDS011;29216;51.248;6.808;2022-08-23T01:48:00;6.93;;;4.20;;
43248;SDS011;29216;51.248;6.808;2022-08-23T01:50:26;7.68;;;4.47;;
43248;SDS011;29216;51.248;6.808;2022-08-23T01:52:53;7.55;;;4.38;;
43248;SDS011;29216;51.248;6.808;2022-08-23T01:55:19;6.40;;;4.25;;
43248;SDS011;29216;51.248;6.808;2022-08-23T01:57:46;7.45;;;4.28;;
43248;SDS011;29216;51.248;6.808;2022-08-23T02:00:13;5.13;;;3.83;;
43248;SDS011;29216;51.248;6.808;2022-08-23T02:02:40;6.68;;;4.40;;
43248;SDS011;29216;51.248;6.808;2022-08-23T02:05:06;7.30;;;4.82;;
43248;SDS011;29216;51.248;6.808;2022-08-23T02:07:33;5.55;;;4.25;;
43248;SDS011;29216;51.248;6.808;2022-08-23T02:09:59;7.32;;;4.50;;
43248;SDS011;29216;51.248;6.808;2022-08-23T02:12:25;6.50;;;4.70;;
43248;SDS011;29216;51.248;6.808;2022-08-23T02:14:51;4.82;;;4.07;;
43248;SDS011;29216;51.248;6.808;2022-08-23T02:17:17;5.68;;;3.90;;
43248;SDS011;29216;51.248;6.808;2022-08-23T02:19:43;5.80;;;4.18;;
43248;SDS011;29216;51.248;6.808;2022-08-23T02:22:10;12.20;;;4.05;;
43248;SDS011;29216;51.248;6.808;2022-08-23T02:24:43;6.18;;;3.92;;
43248;SDS011;29216;51.248;6.808;2022-08-23T02:27:09;7.20;;;4.32;;
43248;SDS011;29216;51.248;6.808;2022-08-23T02:29:36;8.88;;;4.25;;
43248;SDS011;29216;51.248;6.808;2022-08-23T02:32:02;4.43;;;3.75;;
43248;SDS011;29216;51.248;6.808;2022-08-23T02:34:29;9.20;;;4.18;;
43248;SDS011;29216;51.248;6.808;2022-08-23T02:36:55;7.60;;;4.35;;
43248;SDS011;29216;51.248;6.808;2022-08-23T02:39:21;7.85;;;4.55;;
43248;SDS011;29216;51.248;6.808;2022-08-23T02:41:48;11.18;;;4.68;;
43248;SDS011;29216;51.248;6.808;2022-08-23T02:44:14;7.85;;;4.15;;
43248;SDS011;29216;51.248;6.808;2022-08-23T02:46:41;8.77;;;4.70;;
43248;SDS011;29216;51.248;6.808;2022-08-23T02:49:07;9.55;;;4.38;;
43248;SDS011;29216;51.248;6.808;2022-08-23T02:51:33;5.85;;;3.90;;
43248;SDS011;29216;51.248;6.808;2022-08-23T02:53:59;6.60;;;4.00;;
43248;SDS011;29216;51.248;6.808;2022-08-23T02:56:25;6.28;;;3.88;;
43248;SDS011;29216;51.248;6.808;2022-08-23T02:58:51;7.30;;;3.60;;
43248;SDS011;29216;51.248;6.808;2022-08-23T03:01:22;6.93;;;3.75;;
43248;SDS011;29216;51.248;6.808;2022-08-23T03:03:49;5.85;;;3.50;;
43248;SDS011;29216;51.248;6.808;2022-08-23T03:06:15;5.22;;;3.30;;
43248;SDS011;29216;51.248;6.808;2022-08-23T03:08:41;6.18;;;3.55;;
43248;SDS011;29216;51.248;6.808;2022-08-23T03:11:11;7.00;;;3.78;;
43248;SDS011;29216;51.248;6.808;2022-08-23T03:13:38;5.70;;;3.38;;
43248;SDS011;29216;51.248;6.808;2022-08-23T03:16:04;5.53;;;3.50;;
43248;SDS011;29216;51.248;6.808;2022-08-23T03:18:30;6.70;;;3.67;;
43248;SDS011;29216;51.248;6.808;2022-08-23T03:20:56;4.55;;;3.30;;
43248;SDS011;29216;51.248;6.808;2022-08-23T03:23:22;6.78;;;3.45;;
43248;SDS011;29216;51.248;6.808;2022-08-23T03:25:48;4.93;;;3.40;;
43248;SDS011;29216;51.248;6.808;2022-08-23T03:28:14;7.63;;;3.63;;
43248;SDS011;29216;51.248;6.808;2022-08-23T03:30:40;6.32;;;3.42;;
43248;SDS011;29216;51.248;6.808;2022-08-23T03:33:07;4.95;;;3.22;;
43248;SDS011;29216;51.248;6.808;2022-08-23T03:35:33;6.72;;;3.45;;
43248;SDS011;29216;51.248;6.808;2022-08-23T03:37:59;7.18;;;3.10;;
43248;SDS011;29216;51.248;6.808;2022-08-23T03:40:25;6.25;;;3.70;;
43248;SDS011;29216;51.248;6.808;2022-08-23T03:42:51;10.68;;;4.72;;
43248;SDS011;29216;51.248;6.808;2022-08-23T03:45:17;8.40;;;4.05;;
43248;SDS011;29216;51.248;6.808;2022-08-23T03:47:44;6.95;;;3.90;;
43248;SDS011;29216;51.248;6.808;2022-08-23T03:50:10;6.18;;;3.92;;
43248;SDS011;29216;51.248;6.808;2022-08-23T03:52:36;8.65;;;4.28;;
43248;SDS011;29216;51.248;6.808;2022-08-23T03:55:02;7.57;;;4.00;;
43248;SDS011;29216;51.248;6.808;2022-08-23T03:57:29;8.00;;;4.55;;
43248;SDS011;29216;51.248;6.808;2022-08-23T03:59:55;6.88;;;4.13;;
43248;SDS011;29216;51.248;6.808;2022-08-23T04:02:23;8.68;;;4.40;;
43248;SDS011;29216;51.248;6.808;2022-08-23T04:04:49;8.70;;;4.63;;
43248;SDS011;29216;51.248;6.808;2022-08-23T04:07:19;7.63;;;4.82;;
43248;SDS011;29216;51.248;6.808;2022-08-23T04:09:45;6.65;;;4.80;;
43248;SDS011;29216;51.248;6.808;2022-08-23T04:12:11;8.60;;;4.38;;
43248;SDS011;29216;51.248;6.808;2022-08-23T04:14:37;8.13;;;4.38;;
43248;SDS011;29216;51.248;6.808;2022-08-23T04:17:04;6.72;;;4.30;;
43248;SDS011;29216;51.248;6.808;2022-08-23T04:19:30;7.93;;;4.65;;
43248;SDS011;29216;51.248;6.808;2022-08-23T04:21:56;9.77;;;5.30;;
43248;SDS011;29216;51.248;6.808;2022-08-23T04:24:22;9.90;;;5.25;;
43248;SDS011;29216;51.248;6.808;2022-08-23T04:26:49;10.30;;;5.25;;
43248;SDS011;29216;51.248;6.808;2022-08-23T04:29:15;9.68;;;5.22;;
43248;SDS011;29216;51.248;6.808;2022-08-23T04:31:44;11.02;;;5.20;;
43248;SDS011;29216;51.248;6.808;2022-08-23T04:34:10;9.68;;;5.88;;
43248;SDS011;29216;51.248;6.808;2022-08-23T04:36:39;11.10;;;5.85;;
43248;SDS011;29216;51.248;6.808;2022-08-23T04:39:05;8.82;;;5.65;;
43248;SDS011;29216;51.248;6.808;2022-08-23T04:41:31;11.43;;;5.97;;
43248;SDS011;29216;51.248;6.808;2022-08-23T04:44:15;9.73;;;5.60;;
43248;SDS011;29216;51.248;6.808;2022-08-23T04:46:42;9.68;;;5.50;;
43248;SDS011;29216;51.248;6.808;2022-08-23T04:49:08;8.43;;;5.78;;
43248;SDS011;29216;51.248;6.808;2022-08-23T04:51:35;12.00;;;5.55;;
43248;SDS011;29216;51.248;6.808;2022-08-23T04:54:01;10.07;;;5.22;;
43248;SDS011;29216;51.248;6.808;2022-08-23T04:56:27;12.45;;;5.50;;
43248;SDS011;29216;51.248;6.808;2022-08-23T04:58:53;10.10;;;5.68;;
43248;SDS011;29216;51.248;6.808;2022-08-23T05:01:19;11.05;;;6.25;;
43248;SDS011;29216;51.248;6.808;2022-08-23T05:03:45;15.73;;;6.68;;
43248;SDS011;29216;51.248;6.808;2022-08-23T05:06:12;9.48;;;5.55;;
43248;SDS011;29216;51.248;6.808;2022-08-23T05:08:38;8.52;;;5.65;;
43248;SDS011;29216;51.248;6.808;2022-08-23T05:11:06;9.88;;;5.18;;
43248;SDS011;29216;51.248;6.808;2022-08-23T05:13:32;8.98;;;5.50;;
43248;SDS011;29216;51.248;6.808;2022-08-23T05:15:59;13.10;;;5.30;;
43248;SDS011;29216;51.248;6.808;2022-08-23T05:18:25;7.13;;;5.13;;
43248;SDS011;29216;51.248;6.808;2022-08-23T05:20:51;10.45;;;5.88;;
43248;SDS011;29216;51.248;6.808;2022-08-23T05:23:18;8.43;;;5.57;;
43248;SDS011;29216;51.248;6.808;2022-08-23T05:25:44;8.00;;;5.40;;
43248;SDS011;29216;51.248;6.808;2022-08-23T05:28:14;8.55;;;5.25;;
43248;SDS011;29216;51.248;6.808;2022-08-23T05:30:40;10.60;;;5.57;;
43248;SDS011;29216;51.248;6.808;2022-08-23T05:33:06;7.53;;;5.47;;
43248;SDS011;29216;51.248;6.808;2022-08-23T05:35:32;10.70;;;5.75;;
43248;SDS011;29216;51.248;6.808;2022-08-23T05:37:58;8.38;;;4.80;;
43248;SDS011;29216;51.248;6.808;2022-08-23T05:40:25;8.73;;;4.93;;
43248;SDS011;29216;51.248;6.808;2022-08-23T05:42:51;12.40;;;5.60;;
43248;SDS011;29216;51.248;6.808;2022-08-23T05:45:17;12.32;;;5.38;;
43248;SDS011;29216;51.248;6.808;2022-08-23T05:47:43;11.35;;;5.00;;
43248;SDS011;29216;51.248;6.808;2022-08-23T05:50:10;8.50;;;4.70;;
43248;SDS011;29216;51.248;6.808;2022-08-23T05:52:37;10.68;;;6.75;;
43248;SDS011;29216;51.248;6.808;2022-08-23T05:55:03;12.35;;;4.90;;
43248;SDS011;29216;51.248;6.808;2022-08-23T05:57:30;8.80;;;5.35;;
43248;SDS011;29216;51.248;6.808;2022-08-23T05:59:56;10.30;;;5.40;;
43248;SDS011;29216;51.248;6.808;2022-08-23T06:02:21;7.50;;;4.72;;
43248;SDS011;29216;51.248;6.808;2022-08-23T06:04:47;8.15;;;4.85;;
43248;SDS011;29216;51.248;6.808;2022-08-23T06:07:13;10.75;;;4.80;;
43248;SDS011;29216;51.248;6.808;2022-08-23T06:09:40;13.70;;;5.10;;
43248;SDS011;29216;51.248;6.808;2022-08-23T06:12:06;8.38;;;4.40;;
43248;SDS011;29216;51.248;6.808;2022-08-23T06:14:32;11.80;;;4.82;;
43248;SDS011;29216;51.248;6.808;2022-08-23T06:16:58;8.13;;;4.60;;
43248;SDS011;29216;51.248;6.808;2022-08-23T06:19:24;14.93;;;4.80;;
43248;SDS011;29216;51.248;6.808;2022-08-23T06:21:50;13.70;;;6.35;;
43248;SDS011;29216;51.248;6.808;2022-08-23T06:24:17;7.70;;;4.57;;
43248;SDS011;29216;51.248;6.808;2022-08-23T06:26:43;8.77;;;5.40;;
43248;SDS011;29216;51.248;6.808;2022-08-23T06:29:11;12.00;;;5.50;;
43248;SDS011;29216;51.248;6.808;2022-08-23T06:31:44;13.50;;;5.50;;
43248;SDS011;29216;51.248;6.808;2022-08-23T06:36:50;8.95;;;4.70;;
43248;SDS011;29216;51.248;6.808;2022-08-23T06:39:17;11.15;;;5.18;;
43248;SDS011;29216;51.248;6.808;2022-08-23T06:41:43;10.45;;;5.40;;
43248;SDS011;29216;51.248;6.808;2022-08-23T06:44:12;14.15;;;4.80;;
43248;SDS011;29216;51.248;6.808;2022-08-23T06:46:38;9.15;;;4.60;;
43248;SDS011;29216;51.248;6.808;2022-08-23T06:49:05;11.00;;;4.70;;
43248;SDS011;29216;51.248;6.808;2022-08-23T06:51:33;10.68;;;4.35;;
43248;SDS011;29216;51.248;6.808;2022-08-23T06:54:00;6.22;;;3.70;;
43248;SDS011;29216;51.248;6.808;2022-08-23T06:56:26;9.60;;;4.13;;
43248;SDS011;29216;51.248;6.808;2022-08-23T06:58:52;7.25;;;3.97;;
43248;SDS011;29216;51.248;6.808;2022-08-23T07:01:31;8.38;;;3.70;;
43248;SDS011;29216;51.248;6.808;2022-08-23T07:03:58;8.48;;;4.10;;
43248;SDS011;29216;51.248;6.808;2022-08-23T07:06:25;11.70;;;3.88;;
43248;SDS011;29216;51.248;6.808;2022-08-23T07:08:52;8.32;;;3.80;;
43248;SDS011;29216;51.248;6.808;2022-08-23T07:11:18;5.75;;;3.80;;
43248;SDS011;29216;51.248;6.808;2022-08-23T07:13:44;10.50;;;4.10;;
43248;SDS011;29216;51.248;6.808;2022-08-23T07:16:10;11.38;;;4.13;;
43248;SDS011;29216;51.248;6.808;2022-08-23T07:18:37;10.30;;;4.35;;
43248;SDS011;29216;51.248;6.808;2022-08-23T07:21:03;9.30;;;3.85;;
43248;SDS011;29216;51.248;6.808;2022-08-23T07:23:30;8.88;;;4.10;;
43248;SDS011;29216;51.248;6.808;2022-08-23T07:25:57;6.93;;;3.65;;
43248;SDS011;29216;51.248;6.808;2022-08-23T07:28:23;8.27;;;3.92;;
43248;SDS011;29216;51.248;6.808;2022-08-23T07:30:49;8.95;;;3.78;;
43248;SDS011;29216;51.248;6.808;2022-08-23T07:33:16;7.57;;;3.88;;
43248;SDS011;29216;51.248;6.808;2022-08-23T07:35:45;12.32;;;4.82;;
43248;SDS011;29216;51.248;6.808;2022-08-23T07:38:12;10.63;;;3.97;;
43248;SDS011;29216;51.248;6.808;2022-08-23T07:40:38;8.90;;;3.85;;
43248;SDS011;29216;51.248;6.808;2022-08-23T07:43:04;8.80;;;4.25;;
43248;SDS011;29216;51.248;6.808;2022-08-23T07:45:30;10.23;;;4.38;;
43248;SDS011;29216;51.248;6.808;2022-08-23T07:47:56;7.43;;;3.90;;
43248;SDS011;29216;51.248;6.808;2022-08-23T07:50:22;9.27;;;4.65;;
43248;SDS011;29216;51.248;6.808;2022-08-23T07:52:48;9.88;;;4.13;;
43248;SDS011;29216;51.248;6.808;2022-08-23T07:55:14;7.03;;;3.60;;
43248;SDS011;29216;51.248;6.808;2022-08-23T07:57:40;9.52;;;4.00;;
43248;SDS011;29216;51.248;6.808;2022-08-23T08:00:06;7.38;;;4.40;;
43248;SDS011;29216;51.248;6.808;2022-08-23T08:02:32;10.23;;;3.85;;
43248;SDS011;29216;51.248;6.808;2022-08-23T08:04:58;5.47;;;3.75;;
43248;SDS011;29216;51.248;6.808;2022-08-23T08:07:24;12.18;;;4.10;;
43248;SDS011;29216;51.248;6.808;2022-08-23T08:09:51;7.60;;;3.72;;
43248;SDS011;29216;51.248;6.808;2022-08-23T08:12:17;6.03;;;3.58;;
43248;SDS011;29216;51.248;6.808;2022-08-23T08:14:43;9.90;;;3.97;;
43248;SDS011;29216;51.248;6.808;2022-08-23T08:17:12;9.68;;;4.05;;
43248;SDS011;29216;51.248;6.808;2022-08-23T08:19:38;11.13;;;4.38;;
43248;SDS011;29216;51.248;6.808;2022-08-23T08:22:05;11.02;;;3.95;;
43248;SDS011;29216;51.248;6.808;2022-08-23T08:24:31;7.13;;;4.25;;
43248;SDS011;29216;51.248;6.808;2022-08-23T08:26:57;8.07;;;3.80;;
43248;SDS011;29216;51.248;6.808;2022-08-23T08:29:23;7.63;;;3.70;;
43248;SDS011;29216;51.248;6.808;2022-08-23T08:31:50;7.47;;;3.60;;
43248;SDS011;29216;51.248;6.808;2022-08-23T08:34:16;10.98;;;3.88;;
43248;SDS011;29216;51.248;6.808;2022-08-23T08:36:47;9.30;;;3.95;;
43248;SDS011;29216;51.248;6.808;2022-08-23T08:39:18;9.95;;;3.75;;
43248;SDS011;29216;51.248;6.808;2022-08-23T08:46:56;11.60;;;4.43;;
43248;SDS011;29216;51.248;6.808;2022-08-23T08:49:36;8.38;;;3.67;;
43248;SDS011;29216;51.248;6.808;2022-08-23T08:52:14;9.10;;;3.60;;
43248;SDS011;29216;51.248;6.808;2022-08-23T08:54:42;8.85;;;3.80;;
43248;SDS011;29216;51.248;6.808;2022-08-23T08:57:10;8.15;;;4.10;;
43248;SDS011;29216;51.248;6.808;2022-08-23T09:02:16;13.13;;;4.35;;
43248;SDS011;29216;51.248;6.808;2022-08-23T09:04:42;9.18;;;4.07;;
43248;SDS011;29216;51.248;6.808;2022-08-23T09:13:10;7.47;;;3.80;;
43248;SDS011;29216;51.248;6.808;2022-08-23T09:17:42;8.70;;;3.92;;
43248;SDS011;29216;51.248;6.808;2022-08-23T09:20:09;10.02;;;3.97;;
43248;SDS011;29216;51.248;6.808;2022-08-23T09:22:44;8.93;;;4.00;;
43248;SDS011;29216;51.248;6.808;2022-08-23T09:25:13;12.82;;;4.45;;
43248;SDS011;29216;51.248;6.808;2022-08-23T09:27:41;8.98;;;4.20;;
43248;SDS011;29216;51.248;6.808;2022-08-23T09:30:09;8.48;;;4.80;;
43248;SDS011;29216;51.248;6.808;2022-08-23T09:32:36;16.20;;;4.22;;
43248;SDS011;29216;51.248;6.808;2022-08-23T09:40:28;9.57;;;4.38;;
43248;SDS011;29216;51.248;6.808;2022-08-23T09:43:13;9.02;;;3.90;;
43248;SDS011;29216;51.248;6.808;2022-08-23T09:45:51;9.85;;;4.70;;
43248;SDS011;29216;51.248;6.808;2022-08-23T09:51:17;9.65;;;5.05;;
43248;SDS011;29216;51.248;6.808;2022-08-23T09:53:45;6.57;;;4.38;;
43248;SDS011;29216;51.248;6.808;2022-08-23T09:56:15;9.52;;;4.32;;
43248;SDS011;29216;51.248;6.808;2022-08-23T09:58:44;13.57;;;4.88;;
43248;SDS011;29216;51.248;6.808;2022-08-23T10:01:30;9.32;;;4.10;;
43248;SDS011;29216;51.248;6.808;2022-08-23T10:04:11;7.28;;;3.90;;
43248;SDS011;29216;51.248;6.808;2022-08-23T10:06:37;8.85;;;4.05;;
43248;SDS011;29216;51.248;6.808;2022-08-23T10:09:06;7.07;;;3.90;;
43248;SDS011;29216;51.248;6.808;2022-08-23T10:11:42;6.53;;;3.60;;
43248;SDS011;29216;51.248;6.808;2022-08-23T10:14:11;6.43;;;3.45;;
43248;SDS011;29216;51.248;6.808;2022-08-23T10:24:21;6.60;;;3.10;;
43248;SDS011;29216;51.248;6.808;2022-08-23T10:27:38;9.25;;;2.88;;
43248;SDS011;29216;51.248;6.808;2022-08-23T10:29:57;9.18;;;4.57;;
43248;SDS011;29216;51.248;6.808;2022-08-23T10:33:11;5.18;;;2.83;;
43248;SDS011;29216;51.248;6.808;2022-08-23T10:45:32;4.57;;;2.67;;
43248;SDS011;29216;51.248;6.808;2022-08-23T10:48:04;7.88;;;3.30;;
43248;SDS011;29216;51.248;6.808;2022-08-23T10:50:38;8.95;;;3.10;;
43248;SDS011;29216;51.248;6.808;2022-08-23T10:53:13;6.45;;;3.25;;
43248;SDS011;29216;51.248;6.808;2022-08-23T10:55:43;7.47;;;3.20;;
43248;SDS011;29216;51.248;6.808;2022-08-23T10:58:27;7.07;;;3.28;;
43248;SDS011;29216;51.248;6.808;2022-08-23T11:00:53;7.78;;;3.33;;
43248;SDS011;29216;51.248;6.808;2022-08-23T11:03:22;6.15;;;3.08;;
43248;SDS011;29216;51.248;6.808;2022-08-23T11:08:39;7.95;;;3.50;;
43248;SDS011;29216;51.248;6.808;2022-08-23T11:13:55;10.20;;;3.63;;
43248;SDS011;29216;51.248;6.808;2022-08-23T11:16:28;14.60;;;3.60;;
43248;SDS011;29216;51.248;6.808;2022-08-23T11:18:55;8.10;;;3.35;;
43248;SDS011;29216;51.248;6.808;2022-08-23T11:28:48;6.80;;;3.30;;
43248;SDS011;29216;51.248;6.808;2022-08-23T11:31:29;5.53;;;2.92;;
43248;SDS011;29216;51.248;6.808;2022-08-23T11:34:03;6.78;;;3.08;;
43248;SDS011;29216;51.248;6.808;2022-08-23T11:36:31;5.45;;;2.67;;
43248;SDS011;29216;51.248;6.808;2022-08-23T11:54:22;6.03;;;3.58;;
43248;SDS011;29216;51.248;6.808;2022-08-23T12:01:56;10.20;;;3.90;;
43248;SDS011;29216;51.248;6.808;2022-08-23T12:04:29;7.00;;;3.08;;
43248;SDS011;29216;51.248;6.808;2022-08-23T12:06:56;9.25;;;3.72;;
43248;SDS011;29216;51.248;6.808;2022-08-23T12:19:48;7.35;;;3.30;;
43248;SDS011;29216;51.248;6.808;2022-08-23T12:22:20;7.72;;;4.75;;
43248;SDS011;29216;51.248;6.808;2022-08-23T12:30:06;8.48;;;3.30;;
43248;SDS011;29216;51.248;6.808;2022-08-23T12:32:53;7.95;;;2.70;;
43248;SDS011;29216;51.248;6.808;2022-08-23T12:40:38;8.33;;;3.27;;
43248;SDS011;29216;51.248;6.808;2022-08-23T12:45:36;6.53;;;3.38;;
43248;SDS011;29216;51.248;6.808;2022-08-23T12:48:05;7.90;;;3.40;;
43248;SDS011;29216;51.248;6.808;2022-08-23T12:50:39;9.30;;;3.20;;
43248;SDS011;29216;51.248;6.808;2022-08-23T12:53:10;8.43;;;3.17;;
43248;SDS011;29216;51.248;6.808;2022-08-23T12:55:40;8.63;;;4.28;;
43248;SDS011;29216;51.248;6.808;2022-08-23T12:58:07;8.55;;;3.50;;
43248;SDS011;29216;51.248;6.808;2022-08-23T13:00:35;7.07;;;2.90;;
43248;SDS011;29216;51.248;6.808;2022-08-23T13:07:56;13.00;;;3.40;;
43248;SDS011;29216;51.248;6.808;2022-08-23T13:10:23;6.53;;;3.13;;
43248;SDS011;29216;51.248;6.808;2022-08-23T13:12:50;5.53;;;2.95;;
43248;SDS011;29216;51.248;6.808;2022-08-23T13:18:00;7.75;;;4.05;;
43248;SDS011;29216;51.248;6.808;2022-08-23T13:20:26;12.77;;;2.90;;
43248;SDS011;29216;51.248;6.808;2022-08-23T13:22:54;6.00;;;2.50;;
43248;SDS011;29216;51.248;6.808;2022-08-23T13:25:25;10.48;;;4.65;;
43248;SDS011;29216;51.248;6.808;2022-08-23T13:27:55;7.78;;;3.92;;
43248;SDS011;29216;51.248;6.808;2022-08-23T13:32:49;9.82;;;5.47;;
43248;SDS011;29216;51.248;6.808;2022-08-23T13:37:55;8.40;;;2.70;;
43248;SDS011;29216;51.248;6.808;2022-08-23T13:40:26;5.18;;;2.72;;
43248;SDS011;29216;51.248;6.808;2022-08-23T13:42:57;4.35;;;2.70;;
43248;SDS011;29216;51.248;6.808;2022-08-23T13:45:25;6.82;;;3.00;;
43248;SDS011;29216;51.248;6.808;2022-08-23T13:50:25;8.17;;;2.90;;
43248;SDS011;29216;51.248;6.808;2022-08-23T13:52:52;4.88;;;2.47;;
43248;SDS011;29216;51.248;6.808;2022-08-23T13:55:18;7.38;;;3.40;;
43248;SDS011;29216;51.248;6.808;2022-08-23T13:57:44;10.43;;;2.38;;
43248;SDS011;29216;51.248;6.808;2022-08-23T14:00:10;6.47;;;2.63;;
43248;SDS011;29216;51.248;6.808;2022-08-23T14:02:36;7.57;;;2.80;;
43248;SDS011;29216;51.248;6.808;2022-08-23T14:05:04;5.82;;;2.55;;
43248;SDS011;29216;51.248;6.808;2022-08-23T14:07:30;7.40;;;2.95;;
43248;SDS011;29216;51.248;6.808;2022-08-23T14:09:56;4.22;;;2.55;;
43248;SDS011;29216;51.248;6.808;2022-08-23T14:12:23;5.45;;;2.72;;
43248;SDS011;29216;51.248;6.808;2022-08-23T14:14:50;5.32;;;2.70;;
43248;SDS011;29216;51.248;6.808;2022-08-23T14:17:16;5.03;;;2.60;;
43248;SDS011;29216;51.248;6.808;2022-08-23T14:19:43;6.63;;;2.67;;
43248;SDS011;29216;51.248;6.808;2022-08-23T14:22:11;7.28;;;2.50;;
43248;SDS011;29216;51.248;6.808;2022-08-23T14:24:37;5.10;;;2.70;;
43248;SDS011;29216;51.248;6.808;2022-08-23T14:27:03;7.38;;;3.05;;
43248;SDS011;29216;51.248;6.808;2022-08-23T14:29:29;5.65;;;2.30;;
43248;SDS011;29216;51.248;6.808;2022-08-23T14:31:56;4.35;;;2.33;;
43248;SDS011;29216;51.248;6.808;2022-08-23T14:34:23;5.20;;;2.45;;
43248;SDS011;29216;51.248;6.808;2022-08-23T14:36:50;3.95;;;2.30;;
43248;SDS011;29216;51.248;6.808;2022-08-23T14:39:17;5.38;;;2.45;;
43248;SDS011;29216;51.248;6.808;2022-08-23T14:41:44;7.28;;;2.45;;
43248;SDS011;29216;51.248;6.808;2022-08-23T14:44:10;3.20;;;2.20;;
43248;SDS011;29216;51.248;6.808;2022-08-23T14:46:38;5.82;;;2.67;;
43248;SDS011;29216;51.248;6.808;2022-08-23T14:49:04;5.95;;;2.53;;
43248;SDS011;29216;51.248;6.808;2022-08-23T14:51:35;5.03;;;2.35;;
43248;SDS011;29216;51.248;6.808;2022-08-23T14:54:02;11.70;;;2.63;;
43248;SDS011;29216;51.248;6.808;2022-08-23T14:56:29;5.40;;;2.72;;
43248;SDS011;29216;51.248;6.808;2022-08-23T14:58:55;5.05;;;2.40;;
43248;SDS011;29216;51.248;6.808;2022-08-23T15:01:22;8.27;;;2.35;;
43248;SDS011;29216;51.248;6.808;2022-08-23T15:03:48;6.65;;;2.67;;
43248;SDS011;29216;51.248;6.808;2022-08-23T15:06:14;4.25;;;2.30;;
43248;SDS011;29216;51.248;6.808;2022-08-23T15:08:41;5.70;;;2.67;;
43248;SDS011;29216;51.248;6.808;2022-08-23T15:11:07;6.40;;;2.63;;
43248;SDS011;29216;51.248;6.808;2022-08-23T15:13:34;3.88;;;2.38;;
43248;SDS011;29216;51.248;6.808;2022-08-23T15:16:02;6.20;;;2.50;;
43248;SDS011;29216;51.248;6.808;2022-08-23T15:18:29;4.47;;;2.22;;
43248;SDS011;29216;51.248;6.808;2022-08-23T15:20:56;4.30;;;2.35;;
43248;SDS011;29216;51.248;6.808;2022-08-23T15:23:22;5.35;;;2.47;;
43248;SDS011;29216;51.248;6.808;2022-08-23T15:25:48;4.70;;;2.50;;
43248;SDS011;29216;51.248;6.808;2022-08-23T15:28:15;6.03;;;2.03;;
43248;SDS011;29216;51.248;6.808;2022-08-23T15:30:42;2.80;;;1.98;;
43248;SDS011;29216;51.248;6.808;2022-08-23T15:33:08;4.03;;;2.25;;
43248;SDS011;29216;51.248;6.808;2022-08-23T15:35:42;5.55;;;2.08;;
43248;SDS011;29216;51.248;6.808;2022-08-23T15:38:09;5.90;;;2.33;;
43248;SDS011;29216;51.248;6.808;2022-08-23T15:40:35;7.50;;;2.38;;
43248;SDS011;29216;51.248;6.808;2022-08-23T15:43:01;6.13;;;2.20;;
43248;SDS011;29216;51.248;6.808;2022-08-23T15:45:28;6.05;;;2.45;;
43248;SDS011;29216;51.248;6.808;2022-08-23T15:47:54;3.75;;;2.13;;
43248;SDS011;29216;51.248;6.808;2022-08-23T15:50:23;6.20;;;2.40;;
43248;SDS011;29216;51.248;6.808;2022-08-23T15:52:50;3.45;;;2.30;;
43248;SDS011;29216;51.248;6.808;2022-08-23T15:55:16;3.90;;;2.15;;
43248;SDS011;29216;51.248;6.808;2022-08-23T15:57:44;3.63;;;2.10;;
43248;SDS011;29216;51.248;6.808;2022-08-23T16:00:11;5.63;;;2.50;;
43248;SDS011;29216;51.248;6.808;2022-08-23T16:02:38;3.65;;;2.20;;
43248;SDS011;29216;51.248;6.808;2022-08-23T16:05:05;4.60;;;2.40;;
43248;SDS011;29216;51.248;6.808;2022-08-23T16:07:31;6.07;;;2.45;;
43248;SDS011;29216;51.248;6.808;2022-08-23T16:09:57;4.95;;;2.60;;
43248;SDS011;29216;51.248;6.808;2022-08-23T16:12:25;5.43;;;2.03;;
43248;SDS011;29216;51.248;6.808;2022-08-23T16:14:51;5.97;;;2.20;;
43248;SDS011;29216;51.248;6.808;2022-08-23T16:17:18;4.60;;;2.33;;
43248;SDS011;29216;51.248;6.808;2022-08-23T16:19:44;4.60;;;2.63;;
43248;SDS011;29216;51.248;6.808;2022-08-23T16:22:10;5.00;;;2.05;;
43248;SDS011;29216;51.248;6.808;2022-08-23T16:24:36;7.13;;;2.65;;
43248;SDS011;29216;51.248;6.808;2022-08-23T16:27:03;5.40;;;2.20;;
43248;SDS011;29216;51.248;6.808;2022-08-23T16:29:30;4.07;;;1.90;;
43248;SDS011;29216;51.248;6.808;2022-08-23T16:31:58;3.60;;;2.30;;
43248;SDS011;29216;51.248;6.808;2022-08-23T16:34:24;6.63;;;2.63;;
43248;SDS011;29216;51.248;6.808;2022-08-23T16:36:53;3.35;;;2.08;;
43248;SDS011;29216;51.248;6.808;2022-08-23T16:39:19;5.13;;;2.10;;
43248;SDS011;29216;51.248;6.808;2022-08-23T16:41:45;2.95;;;2.10;;
43248;SDS011;29216;51.248;6.808;2022-08-23T16:44:11;2.88;;;1.77;;
43248;SDS011;29216;51.248;6.808;2022-08-23T16:46:37;4.22;;;1.73;;
43248;SDS011;29216;51.248;6.808;2022-08-23T16:49:06;6.28;;;2.13;;
43248;SDS011;29216;51.248;6.808;2022-08-23T16:51:32;4.72;;;1.90;;
43248;SDS011;29216;51.248;6.808;2022-08-23T16:53:58;3.67;;;2.38;;
43248;SDS011;29216;51.248;6.808;2022-08-23T16:56:24;4.80;;;2.10;;